Time;durP1;ratioP1;P1;durP2;ratioP2;P2;SDS_P1;SDS_P2;PMS_P1;PMS_P2;Temp;Humidity;BMP_temperature;BMP_pressure;BME280_temperature;BME280_humidity;BME280_pressure;Samples;Min_cycle;Max_cycle;Signal;HPM_P1;HPM_P2
2021/09/19 00:00:59;;;;;;;4.50;2.47;;;;;;;-145.18;100.00;60484.78;5019126;28;20045;-73
2021/09/19 00:03:25;;;;;;;5.17;2.10;;;;;;;-145.18;100.00;60484.78;5017781;28;20098;-72
2021/09/19 00:05:50;;;;;;;6.13;2.40;;;;;;;-145.18;100.00;60484.78;5019471;28;20626;-72
2021/09/19 00:08:16;;;;;;;9.07;2.20;;;;;;;-145.18;100.00;60484.78;5018953;28;20056;-72
2021/09/19 00:10:42;;;;;;;6.53;2.27;;;;;;;-145.18;100.00;60484.78;5018871;28;20063;-72
2021/09/19 00:13:08;;;;;;;5.70;2.20;;;;;;;-145.18;100.00;60484.78;5018546;28;20021;-72
2021/09/19 00:15:33;;;;;;;4.20;2.10;;;;;;;-145.18;100.00;60484.78;5019067;28;20094;-72
2021/09/19 00:17:59;;;;;;;6.53;2.37;;;;;;;-145.18;100.00;60484.78;5018759;28;20021;-72
2021/09/19 00:20:24;;;;;;;8.20;2.50;;;;;;;-145.18;100.00;60484.78;5018602;28;20640;-72
2021/09/19 00:22:50;;;;;;;4.63;2.30;;;;;;;-145.18;100.00;60484.78;5018259;28;20047;-72
2021/09/19 00:25:15;;;;;;;4.60;2.40;;;;;;;-145.18;100.00;60484.78;5018168;28;20124;-72
2021/09/19 00:27:41;;;;;;;4.30;2.40;;;;;;;-145.18;100.00;60484.78;5018781;28;20175;-73
2021/09/19 00:30:08;;;;;;;5.50;2.40;;;;;;;-145.18;100.00;60484.78;5018239;28;20632;-72
2021/09/19 00:32:34;;;;;;;4.63;2.27;;;;;;;-145.18;100.00;60484.78;5018268;28;20037;-72
2021/09/19 00:35:01;;;;;;;5.53;2.13;;;;;;;-145.18;100.00;60484.78;5018520;28;20116;-72
2021/09/19 00:37:27;;;;;;;5.47;2.50;;;;;;;-145.18;100.00;60484.78;5017911;28;20369;-72
2021/09/19 00:39:53;;;;;;;5.43;2.47;;;;;;;-145.18;100.00;60484.78;5018155;28;20159;-72
2021/09/19 00:42:19;;;;;;;4.73;2.10;;;;;;;-145.18;100.00;60484.78;5018077;28;20116;-72
2021/09/19 00:44:44;;;;;;;6.13;2.53;;;;;;;-145.18;100.00;60484.78;5018348;28;20029;-72
2021/09/19 00:47:10;;;;;;;4.93;2.03;;;;;;;-145.18;100.00;60484.78;5017926;28;20091;-72
2021/09/19 00:49:35;;;;;;;4.93;2.30;;;;;;;-145.18;100.00;60484.78;5017890;28;20083;-72
2021/09/19 00:52:01;;;;;;;4.60;2.20;;;;;;;-145.18;100.00;60484.78;5017526;28;20553;-72
2021/09/19 00:54:27;;;;;;;5.07;2.27;;;;;;;-145.18;100.00;60484.78;5017031;28;20522;-72
2021/09/19 00:56:56;;;;;;;4.93;2.17;;;;;;;-145.18;100.00;60484.78;5017948;28;20041;-72
2021/09/19 00:59:23;;;;;;;4.90;1.50;;;;;;;-145.18;100.00;60484.78;5018011;28;20414;-72
2021/09/19 01:01:50;;;;;;;5.20;1.90;;;;;;;-145.18;100.00;60484.78;5017263;28;20027;-73
2021/09/19 01:04:16;;;;;;;4.63;2.50;;;;;;;-145.18;100.00;60484.78;5018440;28;20107;-72
2021/09/19 01:06:42;;;;;;;5.77;2.33;;;;;;;-145.18;100.00;60484.78;5022152;28;20472;-73
2021/09/19 01:09:08;;;;;;;7.27;2.40;;;;;;;-145.18;100.00;60484.78;5022149;28;20040;-72
2021/09/19 01:11:33;;;;;;;5.90;2.23;;;;;;;-145.18;100.00;60484.78;5021654;28;20526;-73
2021/09/19 01:14:00;;;;;;;4.60;2.20;;;;;;;-145.18;100.00;60484.78;5022296;28;20516;-72
2021/09/19 01:16:26;;;;;;;4.63;2.17;;;;;;;-145.18;100.00;60484.78;5022159;28;20057;-73
2021/09/19 01:18:54;;;;;;;7.27;2.50;;;;;;;-145.18;100.00;60484.78;5021133;28;20463;-72
2021/09/19 01:21:19;;;;;;;5.07;2.40;;;;;;;-145.18;100.00;60484.78;5022235;28;20496;-73
2021/09/19 01:24:00;;;;;;;7.10;2.23;;;;;;;-145.18;100.00;60484.78;5021067;28;20017;-72
2021/09/19 01:26:26;;;;;;;7.90;3.83;;;;;;;-145.18;100.00;60484.78;5021895;28;20190;-72
2021/09/19 01:28:52;;;;;;;4.33;2.13;;;;;;;-145.18;100.00;60484.78;5021617;28;20317;-72
2021/09/19 01:31:17;;;;;;;6.27;2.30;;;;;;;-145.18;100.00;60484.78;5021827;28;20037;-73
2021/09/19 01:33:43;;;;;;;8.97;2.67;;;;;;;-145.18;100.00;60484.78;5021293;28;20048;-72
2021/09/19 01:36:13;;;;;;;5.90;2.63;;;;;;;-145.18;100.00;60484.78;5022184;28;20029;-72
2021/09/19 01:38:39;;;;;;;5.27;2.87;;;;;;;-145.18;100.00;60484.78;5021244;28;20018;-73
2021/09/19 01:41:05;;;;;;;6.30;2.57;;;;;;;-145.18;100.00;60484.78;5020703;28;20526;-72
2021/09/19 01:43:31;;;;;;;5.70;2.40;;;;;;;-145.18;100.00;60484.78;5021007;28;20250;-72
2021/09/19 01:46:05;;;;;;;8.70;2.90;;;;;;;-145.18;100.00;60484.78;5021736;28;20025;-73
2021/09/19 01:48:37;;;;;;;12.77;2.70;;;;;;;-145.18;100.00;60484.78;5021223;28;20018;-73
2021/09/19 01:51:04;;;;;;;8.73;2.93;;;;;;;-145.18;100.00;60484.78;5015177;28;20060;-72
2021/09/19 01:53:30;;;;;;;8.90;2.60;;;;;;;-145.18;100.00;60484.78;5020267;28;20168;-73
2021/09/19 01:55:55;;;;;;;6.27;2.63;;;;;;;-145.18;100.00;60484.78;5021142;28;20555;-73
2021/09/19 01:58:22;;;;;;;8.37;3.87;;;;;;;-145.18;100.00;60484.78;5020987;28;20159;-72
2021/09/19 02:00:48;;;;;;;6.70;2.73;;;;;;;-145.18;100.00;60484.78;5011834;28;20033;-73
2021/09/19 02:03:13;;;;;;;6.40;2.70;;;;;;;-145.18;100.00;60484.78;5020566;28;20025;-72
2021/09/19 02:05:40;;;;;;;6.90;2.47;;;;;;;-145.18;100.00;60484.78;5021201;28;20064;-73
2021/09/19 02:08:05;;;;;;;4.60;2.50;;;;;;;-145.18;100.00;60484.78;5020683;28;20025;-73
2021/09/19 02:10:31;;;;;;;5.03;2.60;;;;;;;-145.18;100.00;60484.78;5021478;28;20381;-73
2021/09/19 02:12:56;;;;;;;6.03;2.60;;;;;;;-145.18;100.00;60484.78;5020451;28;20033;-73
2021/09/19 02:15:22;;;;;;;6.53;2.43;;;;;;;-145.18;100.00;60484.78;5020360;28;20353;-73
2021/09/19 02:17:47;;;;;;;7.53;3.23;;;;;;;-145.18;100.00;60484.78;5020664;28;20419;-73
2021/09/19 02:20:14;;;;;;;7.33;2.63;;;;;;;-145.18;100.00;60484.78;5020742;28;20025;-72
2021/09/19 02:22:41;;;;;;;7.30;2.73;;;;;;;-145.18;100.00;60484.78;5020303;28;20033;-73
2021/09/19 02:25:08;;;;;;;9.13;3.63;;;;;;;-145.18;100.00;60484.78;5020658;28;20523;-73
2021/09/19 02:27:35;;;;;;;8.33;2.50;;;;;;;-145.18;100.00;60484.78;5020763;28;20029;-73
2021/09/19 02:30:03;;;;;;;6.07;2.63;;;;;;;-145.18;100.00;60484.78;5021468;28;20472;-72
2021/09/19 02:32:28;;;;;;;8.80;3.17;;;;;;;-145.18;100.00;60484.78;5020348;28;20510;-72
2021/09/19 02:34:54;;;;;;;7.53;2.93;;;;;;;-145.18;100.00;60484.78;5020214;28;20037;-73
2021/09/19 02:37:19;;;;;;;5.80;2.60;;;;;;;-145.18;100.00;60484.78;5020404;28;20072;-72
2021/09/19 02:39:45;;;;;;;6.20;2.43;;;;;;;-145.18;100.00;60484.78;5020812;28;20546;-73
2021/09/19 02:42:10;;;;;;;5.53;2.63;;;;;;;-145.18;100.00;60484.78;5020603;28;20021;-73
2021/09/19 02:44:36;;;;;;;5.60;2.93;;;;;;;-145.18;100.00;60484.78;5020222;28;20029;-73
2021/09/19 02:47:01;;;;;;;6.00;2.80;;;;;;;-145.18;100.00;60484.78;5020492;28;20499;-72
2021/09/19 02:49:27;;;;;;;7.37;2.90;;;;;;;-145.18;100.00;60484.78;5020196;28;20124;-74
2021/09/19 02:51:52;;;;;;;6.27;2.77;;;;;;;-145.18;100.00;60484.78;5019933;28;20126;-73
2021/09/19 02:54:18;;;;;;;5.97;2.80;;;;;;;-145.18;100.00;60484.78;5019273;28;20068;-73
2021/09/19 02:56:43;;;;;;;5.87;2.80;;;;;;;-145.18;100.00;60484.78;5020084;28;20108;-73
2021/09/19 02:59:09;;;;;;;7.03;3.03;;;;;;;-145.18;100.00;60484.78;5020062;28;20257;-73
2021/09/19 03:01:34;;;;;;;7.87;2.60;;;;;;;-145.18;100.00;60484.78;5020372;28;20435;-73
2021/09/19 03:04:00;;;;;;;6.07;3.07;;;;;;;-145.18;100.00;60484.78;5019719;28;20077;-72
2021/09/19 03:06:26;;;;;;;6.73;3.40;;;;;;;-145.18;100.00;60484.78;5019729;28;20420;-72
2021/09/19 03:08:51;;;;;;;7.57;3.30;;;;;;;-145.18;100.00;60484.78;5019604;28;20083;-72
2021/09/19 03:11:17;;;;;;;7.20;2.77;;;;;;;-145.18;100.00;60484.78;5020082;28;20388;-73
2021/09/19 03:13:42;;;;;;;7.13;2.90;;;;;;;-145.18;100.00;60484.78;5019795;28;20562;-72
2021/09/19 03:16:08;;;;;;;5.50;2.47;;;;;;;-145.18;100.00;60484.78;5019644;28;20334;-72
2021/09/19 03:18:33;;;;;;;6.53;2.77;;;;;;;-145.18;100.00;60484.78;5019727;28;20025;-73
2021/09/19 03:20:59;;;;;;;7.90;3.00;;;;;;;-145.18;100.00;60484.78;5020192;28;20713;-72
2021/09/19 03:23:25;;;;;;;7.87;3.23;;;;;;;-145.18;100.00;60484.78;5019381;28;20495;-72
2021/09/19 03:25:50;;;;;;;7.13;2.70;;;;;;;-145.18;100.00;60484.78;5019619;28;20072;-72
2021/09/19 03:28:16;;;;;;;5.83;2.60;;;;;;;-145.18;100.00;60484.78;5019310;28;20629;-73
2021/09/19 03:30:41;;;;;;;6.47;3.00;;;;;;;-145.18;100.00;60484.78;5020100;28;20025;-72
2021/09/19 03:33:07;;;;;;;7.03;2.90;;;;;;;-145.18;100.00;60484.78;5019695;28;20258;-72
2021/09/19 03:35:32;;;;;;;5.73;2.30;;;;;;;-145.18;100.00;60484.78;5019434;28;20033;-72
2021/09/19 03:37:58;;;;;;;6.63;3.10;;;;;;;-145.18;100.00;60484.78;5019118;28;20026;-73
2021/09/19 03:40:23;;;;;;;5.90;2.50;;;;;;;-145.18;100.00;60484.78;5019462;28;20041;-72
2021/09/19 03:42:54;;;;;;;6.07;2.50;;;;;;;-145.18;100.00;60484.78;5018930;28;20599;-73
2021/09/19 03:45:23;;;;;;;7.70;2.93;;;;;;;-145.18;100.00;60484.78;5019468;28;20139;-72
2021/09/19 03:47:49;;;;;;;7.50;3.00;;;;;;;-145.18;100.00;60484.78;5018371;28;20585;-73
2021/09/19 03:50:14;;;;;;;6.60;3.10;;;;;;;-145.18;100.00;60484.78;5019432;28;20067;-72
2021/09/19 03:52:40;;;;;;;7.47;2.80;;;;;;;-145.18;100.00;60484.78;5018591;28;20075;-73
2021/09/19 03:55:06;;;;;;;9.90;2.73;;;;;;;-145.18;100.00;60484.78;5017647;28;20029;-71
2021/09/19 03:57:32;;;;;;;6.93;2.93;;;;;;;-145.18;100.00;60484.78;5018742;28;20033;-71
2021/09/19 03:59:57;;;;;;;8.13;2.23;;;;;;;-145.18;100.00;60484.78;5019443;28;20266;-72
2021/09/19 04:02:23;;;;;;;6.37;2.43;;;;;;;-145.18;100.00;60484.78;5018320;28;20577;-72
2021/09/19 04:04:48;;;;;;;5.93;2.60;;;;;;;-145.18;100.00;60484.78;5018721;28;20049;-72
2021/09/19 04:07:14;;;;;;;7.87;2.53;;;;;;;-145.18;100.00;60484.78;5017423;28;20060;-73
2021/09/19 04:09:39;;;;;;;6.30;2.60;;;;;;;-145.18;100.00;60484.78;5018291;28;20028;-73
2021/09/19 04:12:05;;;;;;;7.33;2.33;;;;;;;-145.18;100.00;60484.78;5018719;28;20086;-73
2021/09/19 04:14:30;;;;;;;5.83;2.80;;;;;;;-145.18;100.00;60484.78;5018927;28;20052;-72
2021/09/19 04:16:56;;;;;;;6.87;2.60;;;;;;;-145.18;100.00;60484.78;5017963;28;20025;-72
2021/09/19 04:19:21;;;;;;;6.57;2.73;;;;;;;-145.18;100.00;60484.78;5018070;28;20029;-73
2021/09/19 04:21:47;;;;;;;8.50;2.60;;;;;;;-145.18;100.00;60484.78;5018895;28;20060;-72
2021/09/19 04:24:13;;;;;;;6.37;2.80;;;;;;;-145.18;100.00;60484.78;5017978;28;20111;-71
2021/09/19 04:26:38;;;;;;;6.37;2.83;;;;;;;-145.18;100.00;60484.78;5019123;28;20033;-72
2021/09/19 04:29:04;;;;;;;5.63;2.70;;;;;;;-145.18;100.00;60484.78;5017752;28;20112;-71
2021/09/19 04:31:29;;;;;;;7.30;2.50;;;;;;;-145.18;100.00;60484.78;5018192;28;20041;-72
2021/09/19 04:33:55;;;;;;;5.27;2.50;;;;;;;-145.18;100.00;60484.78;5018186;28;20033;-72
2021/09/19 04:36:20;;;;;;;5.97;2.50;;;;;;;-145.18;100.00;60484.78;5017806;28;20527;-72
2021/09/19 04:38:46;;;;;;;6.13;2.67;;;;;;;-145.18;100.00;60484.78;5016807;28;20024;-73
2021/09/19 04:41:11;;;;;;;8.60;3.30;;;;;;;-145.18;100.00;60484.78;5017904;28;20037;-72
2021/09/19 04:43:37;;;;;;;7.23;2.63;;;;;;;-145.18;100.00;60484.78;5016623;28;20040;-73
2021/09/19 04:46:02;;;;;;;5.10;2.43;;;;;;;-145.18;100.00;60484.78;5018699;28;20025;-72
2021/09/19 04:48:28;;;;;;;8.97;3.07;;;;;;;-145.18;100.00;60484.78;5017022;28;20428;-73
2021/09/19 04:50:53;;;;;;;6.77;2.40;;;;;;;-145.18;100.00;60484.78;5017735;28;20033;-73
2021/09/19 04:53:19;;;;;;;5.90;2.93;;;;;;;-145.18;100.00;60484.78;5018163;28;20467;-73
2021/09/19 04:55:44;;;;;;;6.33;2.90;;;;;;;-145.18;100.00;60484.78;5017359;28;20029;-73
2021/09/19 04:58:10;;;;;;;6.93;3.03;;;;;;;-145.18;100.00;60484.78;5017793;28;20029;-72
2021/09/19 05:00:35;;;;;;;8.30;3.00;;;;;;;-145.18;100.00;60484.78;5017987;28;20373;-73
2021/09/19 05:03:01;;;;;;;13.00;3.20;;;;;;;-145.18;100.00;60484.78;5018303;28;20041;-73
2021/09/19 05:05:26;;;;;;;6.87;2.80;;;;;;;-145.18;100.00;60484.78;5017977;28;20053;-73
2021/09/19 05:07:52;;;;;;;6.13;2.87;;;;;;;-145.18;100.00;60484.78;5017294;28;20282;-72
2021/09/19 05:10:17;;;;;;;7.13;2.83;;;;;;;-145.18;100.00;60484.78;5018293;28;20416;-72
2021/09/19 05:12:43;;;;;;;6.47;2.60;;;;;;;-145.18;100.00;60484.78;5018124;28;20236;-72
2021/09/19 05:15:09;;;;;;;8.43;3.07;;;;;;;-145.18;100.00;60484.78;5018406;28;20310;-72
2021/09/19 05:17:34;;;;;;;5.93;3.00;;;;;;;-145.18;100.00;60484.78;5018159;28;20033;-72
2021/09/19 05:20:00;;;;;;;6.00;2.57;;;;;;;-145.18;100.00;60484.78;5016448;28;20021;-72
2021/09/19 05:22:25;;;;;;;6.00;2.83;;;;;;;-145.18;100.00;60484.78;5018079;28;20274;-72
2021/09/19 05:24:51;;;;;;;7.83;3.23;;;;;;;-145.18;100.00;60484.78;5018053;28;20029;-73
2021/09/19 05:27:16;;;;;;;8.83;3.10;;;;;;;-145.18;100.00;60484.78;5017853;28;20025;-73
2021/09/19 05:29:42;;;;;;;5.97;2.50;;;;;;;-145.18;100.00;60484.78;5017814;28;20030;-72
2021/09/19 05:32:08;;;;;;;5.53;2.53;;;;;;;-145.18;100.00;60484.78;5018007;28;20500;-72
2021/09/19 05:34:34;;;;;;;6.00;2.70;;;;;;;-145.18;100.00;60484.78;5018227;28;20195;-72
2021/09/19 05:37:00;;;;;;;8.13;2.60;;;;;;;-145.18;100.00;60484.78;5016952;28;20030;-72
2021/09/19 05:39:25;;;;;;;8.30;2.97;;;;;;;-145.18;100.00;60484.78;5017610;28;20036;-73
2021/09/19 05:41:51;;;;;;;5.13;2.33;;;;;;;-145.18;100.00;60484.78;5017975;28;20608;-73
2021/09/19 05:44:18;;;;;;;7.60;2.60;;;;;;;-145.18;100.00;60484.78;5017759;28;20060;-72
2021/09/19 05:46:43;;;;;;;5.97;3.03;;;;;;;-145.18;100.00;60484.78;5018261;28;20061;-73
2021/09/19 05:49:09;;;;;;;6.00;2.67;;;;;;;-145.18;100.00;60484.78;5018400;28;20057;-72
2021/09/19 05:51:34;;;;;;;13.83;3.13;;;;;;;-145.18;100.00;60484.78;5021689;28;20431;-72
2021/09/19 05:54:00;;;;;;;7.20;2.60;;;;;;;-145.18;100.00;60484.78;5021297;28;20033;-72
2021/09/19 05:56:25;;;;;;;5.30;2.47;;;;;;;-145.18;100.00;60484.78;5020625;28;20036;-73
2021/09/19 05:58:51;;;;;;;7.43;2.33;;;;;;;-145.18;100.00;60484.78;5021678;28;20029;-72
2021/09/19 06:01:16;;;;;;;6.50;2.70;;;;;;;-145.18;100.00;60484.78;5020667;28;20467;-73
2021/09/19 06:03:42;;;;;;;7.10;2.40;;;;;;;-145.18;100.00;60484.78;5020842;28;20060;-73
2021/09/19 06:06:08;;;;;;;6.90;2.80;;;;;;;-145.18;100.00;60484.78;5020704;28;20029;-72
2021/09/19 06:08:33;;;;;;;7.73;2.40;;;;;;;-145.18;100.00;60484.78;5020529;28;20451;-72
2021/09/19 06:10:59;;;;;;;7.07;2.63;;;;;;;-145.18;100.00;60484.78;5020037;28;20025;-73
2021/09/19 06:13:24;;;;;;;8.20;3.10;;;;;;;-145.18;100.00;60484.78;5018998;28;20144;-72
2021/09/19 06:15:50;;;;;;;6.57;2.90;;;;;;;-145.18;100.00;60484.78;5016604;28;20098;-72
2021/09/19 06:18:15;;;;;;;7.00;3.40;;;;;;;-145.18;100.00;60484.78;5020314;28;20436;-71
2021/09/19 06:20:41;;;;;;;7.77;2.40;;;;;;;-145.18;100.00;60484.78;5020822;28;20171;-72
2021/09/19 06:23:07;;;;;;;7.63;2.77;;;;;;;-145.18;100.00;60484.78;5019879;28;20029;-71
2021/09/19 06:25:33;;;;;;;6.17;2.83;;;;;;;-145.18;100.00;60484.78;5020473;28;20033;-71
2021/09/19 06:27:58;;;;;;;6.73;2.83;;;;;;;-145.18;100.00;60484.78;5020536;28;20548;-73
2021/09/19 06:30:26;;;;;;;9.77;2.87;;;;;;;-145.18;100.00;60484.78;5020477;28;20030;-71
2021/09/19 06:32:51;;;;;;;6.87;2.83;;;;;;;-145.18;100.00;60484.78;5019858;28;20500;-72
2021/09/19 06:35:17;;;;;;;8.50;3.37;;;;;;;-145.18;100.00;60484.78;5020268;28;20043;-72
2021/09/19 06:37:42;;;;;;;8.63;3.17;;;;;;;-145.18;100.00;60484.78;5019435;28;20439;-71
2021/09/19 06:40:08;;;;;;;5.77;2.53;;;;;;;-145.18;100.00;60484.78;5020755;28;20039;-72
2021/09/19 06:42:34;;;;;;;8.03;3.07;;;;;;;-145.18;100.00;60484.78;5020006;28;20269;-73
2021/09/19 06:44:59;;;;;;;6.67;2.60;;;;;;;-145.18;100.00;60484.78;5019944;28;20029;-71
2021/09/19 06:47:25;;;;;;;10.83;3.00;;;;;;;-145.18;100.00;60484.78;5019544;28;20029;-73
2021/09/19 06:49:50;;;;;;;5.90;2.67;;;;;;;-145.18;100.00;60484.78;5020442;28;20066;-72
2021/09/19 06:52:16;;;;;;;5.23;2.40;;;;;;;-145.18;100.00;60484.78;5019890;28;20076;-71
2021/09/19 06:54:43;;;;;;;6.03;2.40;;;;;;;-145.18;100.00;60484.78;5020330;28;20174;-72
2021/09/19 06:57:09;;;;;;;4.87;2.40;;;;;;;-145.18;100.00;60484.78;5019898;28;20124;-72
2021/09/19 06:59:34;;;;;;;6.87;2.57;;;;;;;-145.18;100.00;60484.78;5020322;28;20419;-71
2021/09/19 07:02:00;;;;;;;5.90;2.63;;;;;;;-145.18;100.00;60484.78;5018874;28;20033;-72
2021/09/19 07:04:25;;;;;;;5.43;2.13;;;;;;;-145.18;100.00;60484.78;5019925;28;20072;-72
2021/09/19 07:06:51;;;;;;;6.57;2.73;;;;;;;-145.18;100.00;60484.78;5019293;28;20506;-72
2021/09/19 07:09:16;;;;;;;8.70;2.47;;;;;;;-145.18;100.00;60484.78;5019002;28;20518;-72
2021/09/19 07:11:45;;;;;;;7.47;2.90;;;;;;;-145.18;100.00;60484.78;5020004;28;20041;-72
2021/09/19 07:14:10;;;;;;;7.27;2.60;;;;;;;-145.18;100.00;60484.78;5019382;28;20293;-73
2021/09/19 07:16:36;;;;;;;6.57;2.80;;;;;;;-145.18;100.00;60484.78;5019841;28;20116;-72
2021/09/19 07:19:01;;;;;;;7.43;2.90;;;;;;;-145.18;100.00;60484.78;5019850;28;20412;-73
2021/09/19 07:21:27;;;;;;;8.00;2.57;;;;;;;-145.18;100.00;60484.78;5019878;28;20040;-73
2021/09/19 07:23:52;;;;;;;6.93;2.90;;;;;;;-145.18;100.00;60484.78;5018760;28;20033;-73
2021/09/19 07:26:18;;;;;;;8.30;2.97;;;;;;;-145.18;100.00;60484.78;5019492;28;20109;-72
2021/09/19 07:28:44;;;;;;;5.07;2.50;;;;;;;-145.18;100.00;60484.78;5019518;28;20029;-72
2021/09/19 07:31:10;;;;;;;9.80;2.70;;;;;;;-145.18;100.00;60484.78;5019480;28;20522;-73
2021/09/19 07:33:36;;;;;;;5.63;2.70;;;;;;;-145.18;100.00;60484.78;5018975;28;20291;-71
2021/09/19 07:36:02;;;;;;;6.23;2.40;;;;;;;-145.18;100.00;60484.78;5019481;28;20574;-72
2021/09/19 07:38:28;;;;;;;7.30;2.53;;;;;;;-145.18;100.00;60484.78;5018679;28;20087;-72
2021/09/19 07:40:53;;;;;;;6.13;2.73;;;;;;;-145.18;100.00;60484.78;5019340;28;20512;-72
2021/09/19 07:43:22;;;;;;;4.23;2.13;;;;;;;-145.18;100.00;60484.78;5018866;28;20593;-72
2021/09/19 07:45:51;;;;;;;6.40;2.67;;;;;;;-145.18;100.00;60484.78;5014750;28;20296;-72
2021/09/19 07:48:17;;;;;;;8.43;2.63;;;;;;;-145.18;100.00;60484.78;5018671;28;20094;-71
2021/09/19 07:50:43;;;;;;;7.27;2.20;;;;;;;-145.18;100.00;60484.78;5019594;28;20048;-73
2021/09/19 07:53:09;;;;;;;6.20;2.47;;;;;;;-145.18;100.00;60484.78;5018875;28;20192;-72
2021/09/19 07:55:34;;;;;;;5.63;2.57;;;;;;;-145.18;100.00;60484.78;5019222;28;20325;-72
2021/09/19 07:58:00;;;;;;;6.17;2.30;;;;;;;-145.18;100.00;60484.78;5019081;28;20044;-72
2021/09/19 08:00:27;;;;;;;5.43;2.23;;;;;;;-145.18;100.00;60484.78;5016929;28;20591;-72
2021/09/19 08:02:54;;;;;;;4.63;2.17;;;;;;;-145.18;100.00;60484.78;5017907;28;20033;-72
2021/09/19 08:05:20;;;;;;;5.13;2.13;;;;;;;-145.18;100.00;60484.78;5016582;28;20053;-72
2021/09/19 08:07:45;;;;;;;6.37;2.77;;;;;;;-145.18;100.00;60484.78;5014712;28;20036;-73
2021/09/19 08:10:11;;;;;;;6.83;2.30;;;;;;;-145.18;100.00;60484.78;5014632;28;20439;-72
2021/09/19 08:12:36;;;;;;;6.20;2.60;;;;;;;-145.18;100.00;60484.78;5015718;28;20326;-73
2021/09/19 08:15:03;;;;;;;8.50;2.90;;;;;;;-145.18;100.00;60484.78;5014261;28;20033;-72
2021/09/19 08:17:29;;;;;;;6.13;2.77;;;;;;;-145.18;100.00;60484.78;5012815;28;20361;-72
2021/09/19 08:19:54;;;;;;;6.07;2.30;;;;;;;-145.18;100.00;60484.78;5014664;28;20067;-72
2021/09/19 08:22:20;;;;;;;5.73;2.73;;;;;;;-145.18;100.00;60484.78;5016239;28;20400;-72
2021/09/19 08:24:46;;;;;;;4.20;2.03;;;;;;;-145.18;100.00;60484.78;5014390;28;20326;-72
2021/09/19 08:27:12;;;;;;;7.20;2.60;;;;;;;-145.18;100.00;60484.78;5015239;28;20025;-72
2021/09/19 08:29:37;;;;;;;6.20;2.20;;;;;;;-145.18;100.00;60484.78;5015111;28;20037;-72
2021/09/19 08:32:03;;;;;;;9.43;2.50;;;;;;;-145.18;100.00;60484.78;5015063;28;20052;-72
2021/09/19 08:34:29;;;;;;;6.00;2.53;;;;;;;-145.18;100.00;60484.78;5017549;28;20242;-72
2021/09/19 08:36:54;;;;;;;13.77;2.97;;;;;;;-145.18;100.00;60484.78;5016782;28;20045;-71
2021/09/19 08:39:20;;;;;;;5.50;2.17;;;;;;;-145.18;100.00;60484.78;5004952;28;20069;-71
2021/09/19 08:41:49;;;;;;;7.20;2.67;;;;;;;-145.18;100.00;60484.78;5015309;28;20036;-72
2021/09/19 08:44:17;;;;;;;5.33;2.47;;;;;;;-145.18;100.00;60484.78;5013413;28;20064;-72
2021/09/19 08:46:44;;;;;;;6.47;2.17;;;;;;;-145.18;100.00;60484.78;5015113;28;20401;-73
2021/09/19 08:49:10;;;;;;;7.43;2.60;;;;;;;-145.18;100.00;60484.78;5014827;28;20146;-72
2021/09/19 08:51:36;;;;;;;6.63;2.73;;;;;;;-145.18;100.00;60484.78;5016098;28;20033;-72
2021/09/19 08:54:01;;;;;;;6.97;2.90;;;;;;;-145.18;100.00;60484.78;5012030;28;20812;-72
2021/09/19 08:56:27;;;;;;;5.60;2.77;;;;;;;-145.18;100.00;60484.78;5010431;28;20033;-72
2021/09/19 08:58:53;;;;;;;6.93;2.30;;;;;;;-145.18;100.00;60484.78;5015376;28;20033;-71
2021/09/19 09:01:19;;;;;;;5.97;2.57;;;;;;;-145.18;100.00;60484.78;5015783;28;20353;-72
2021/09/19 09:03:45;;;;;;;5.60;2.30;;;;;;;-145.18;100.00;60484.78;5012119;28;20091;-72
2021/09/19 09:06:14;;;;;;;5.87;2.40;;;;;;;-145.18;100.00;60484.78;5006201;28;20496;-72
2021/09/19 09:08:41;;;;;;;6.67;2.53;;;;;;;-145.18;100.00;60484.78;5014861;28;20490;-72
2021/09/19 09:11:06;;;;;;;8.17;2.63;;;;;;;-145.18;100.00;60484.78;5012404;28;20414;-71
2021/09/19 09:13:36;;;;;;;6.90;2.50;;;;;;;-145.18;100.00;60484.78;5014529;28;20393;-72
2021/09/19 09:16:22;;;;;;;7.37;2.30;;;;;;;-145.18;100.00;60484.78;5015015;28;20033;-71
2021/09/19 09:18:53;;;;;;;8.50;2.50;;;;;;;-145.18;100.00;60484.78;5013697;28;20068;-71
2021/09/19 09:21:23;;;;;;;5.80;2.55;;;;;;;-145.18;100.00;60484.78;5014076;28;20454;-72
2021/09/19 09:23:51;;;;;;;5.90;2.63;;;;;;;-145.18;100.00;60484.78;5014958;28;20029;-72
2021/09/19 09:26:37;;;;;;;4.43;2.10;;;;;;;-145.18;100.00;60484.78;5017843;28;20173;-72
2021/09/19 09:29:21;;;;;;;5.93;2.70;;;;;;;-145.18;100.00;60484.78;5017776;28;20038;-73
2021/09/19 09:31:51;;;;;;;4.93;2.50;;;;;;;-145.18;100.00;60484.78;5018850;28;20120;-73
2021/09/19 09:34:23;;;;;;;7.77;3.27;;;;;;;-145.18;100.00;60484.78;5018190;28;20037;-72
2021/09/19 09:37:06;;;;;;;4.87;2.40;;;;;;;-145.18;100.00;60484.78;5018293;28;20113;-73
2021/09/19 09:39:40;;;;;;;5.40;2.80;;;;;;;-145.18;100.00;60484.78;5016971;28;20396;-73
2021/09/19 09:42:14;;;;;;;6.20;2.33;;;;;;;-145.18;100.00;60484.78;5016327;28;20037;-72
2021/09/19 09:44:48;;;;;;;6.23;2.33;;;;;;;-145.18;100.00;60484.78;5017502;28;20089;-72
2021/09/19 09:47:15;;;;;;;4.10;1.93;;;;;;;-145.18;100.00;60484.78;5017202;28;20098;-73
2021/09/19 09:50:03;;;;;;;12.17;2.47;;;;;;;-145.18;100.00;60484.78;5014033;28;20032;-72
2021/09/19 09:52:34;;;;;;;4.70;2.30;;;;;;;-145.18;100.00;60484.78;5018155;28;20256;-72
2021/09/19 09:55:03;;;;;;;5.97;2.20;;;;;;;-145.18;100.00;60484.78;5018422;28;20029;-73
2021/09/19 09:58:18;;;;;;;7.50;2.37;;;;;;;-145.18;100.00;60484.78;5017496;28;20566;-72
2021/09/19 10:00:44;;;;;;;5.97;2.50;;;;;;;-145.18;100.00;60484.78;4997784;28;20485;-72
2021/09/19 10:03:10;;;;;;;4.20;1.80;;;;;;;-145.18;100.00;60484.78;5017616;28;20290;-72
2021/09/19 10:05:36;;;;;;;6.83;2.20;;;;;;;-145.18;100.00;60484.78;5018091;28;20053;-71
2021/09/19 10:08:02;;;;;;;4.50;2.20;;;;;;;-145.18;100.00;60484.78;5016330;28;20384;-73
2021/09/19 10:10:32;;;;;;;6.30;2.53;;;;;;;-145.18;100.00;60484.78;5015082;28;20083;-73
2021/09/19 10:12:58;;;;;;;4.47;2.10;;;;;;;-145.18;100.00;60484.78;5016794;28;20330;-73
2021/09/19 10:15:25;;;;;;;5.80;1.90;;;;;;;-145.18;100.00;60484.78;5016805;28;20120;-73
2021/09/19 10:17:52;;;;;;;4.57;2.17;;;;;;;-145.18;100.00;60484.78;5017633;28;20059;-71
2021/09/19 10:20:46;;;;;;;4.53;2.30;;;;;;;-145.18;100.00;60484.78;5017281;28;20087;-72
2021/09/19 10:23:19;;;;;;;5.20;2.23;;;;;;;-145.18;100.00;60484.78;5016910;28;20175;-73
2021/09/19 10:25:55;;;;;;;5.47;2.37;;;;;;;-145.18;100.00;60484.78;5013727;28;20029;-72
2021/09/19 10:28:45;;;;;;;4.60;2.27;;;;;;;-145.18;100.00;60484.78;5017890;28;20037;-72
2021/09/19 10:31:19;;;;;;;5.20;2.07;;;;;;;-145.18;100.00;60484.78;5014814;28;20103;-72
2021/09/19 10:34:07;;;;;;;4.97;1.90;;;;;;;-145.18;100.00;60484.78;5016714;28;20522;-72
2021/09/19 10:36:52;;;;;;;3.80;1.73;;;;;;;-145.18;100.00;60484.78;5012395;28;20029;-72
2021/09/19 10:39:30;;;;;;;4.07;1.80;;;;;;;-145.18;100.00;60484.78;5017788;28;20420;-72
2021/09/19 10:42:10;;;;;;;5.17;2.00;;;;;;;-145.18;100.00;60484.78;5017116;28;20073;-72
2021/09/19 10:45:01;;;;;;;5.47;1.80;;;;;;;-145.18;100.00;60484.78;5016907;28;20033;-72
2021/09/19 10:47:33;;;;;;;4.27;1.83;;;;;;;-145.18;100.00;60484.78;4974249;28;20500;-72
2021/09/19 10:50:32;;;;;;;4.43;1.80;;;;;;;-145.18;100.00;60484.78;4974147;28;20569;-72
2021/09/19 10:53:02;;;;;;;4.90;2.00;;;;;;;-145.18;100.00;60484.78;4970577;28;20045;-71
